Eden Prairie, Minnesota
Current Conditions -  °F | °C
As of 5:53 AM on Friday 26 Dec 2014 (Local Time) from KFCM Reporting Station
Haze Haze  
Wind Chill: 24°   Ceiling: 700
Heat Index: 33°   Visibility: 6mi
Dew Point: 29°   Wind: 12mph
Humidity: 85%   Direction: 10°N
Pressure: 29.89"   Gusts: NA
Location:  44.86°N, 93.46°W
Report Text: KFCM 261153Z 01010KT 6SM BR OVC007 01/M02 A2989 RMK AO2 SLP131 T00061017 10006 20000 53007
Loading
Personal Weather Stations






























Interactive Weather Map New forecast layout! Learn more

10-Day Weather Forecast

Advertisements
Track Severe Weather on mobile